createdAt,value
2019-04-10T00:02:09.927Z,7.80
2019-04-10T00:07:16.512Z,8.25
2019-04-10T00:12:19.158Z,7.95
2019-04-10T00:17:22.903Z,7.95
2019-04-10T00:22:26.378Z,8.53
2019-04-10T00:27:30.459Z,8.05
2019-04-10T00:32:34.182Z,7.35
2019-04-10T00:37:37.556Z,7.60
2019-04-10T00:42:41.361Z,7.42
2019-04-10T00:47:45.542Z,7.00
2019-04-10T00:52:48.956Z,7.28
2019-04-10T00:57:52.263Z,6.75
2019-04-10T01:02:56.751Z,6.87
2019-04-10T01:08:00.218Z,6.28
2019-04-10T01:13:03.521Z,6.95
2019-04-10T01:18:06.891Z,6.78
2019-04-10T01:23:10.259Z,6.37
2019-04-10T01:28:14.215Z,6.45
2019-04-10T01:33:18.619Z,6.10
2019-04-10T01:38:22.358Z,6.10
2019-04-10T01:43:26.596Z,6.35
2019-04-10T01:48:30.196Z,6.22
2019-04-10T01:53:35.623Z,6.83
2019-04-10T01:58:41.292Z,6.62
2019-04-10T02:03:44.862Z,7.03
2019-04-10T02:08:48.167Z,6.58
2019-04-10T02:13:51.816Z,7.17
2019-04-10T02:18:55.143Z,6.40
2019-04-10T02:23:58.701Z,6.92
2019-04-10T02:29:02.018Z,7.10
2019-04-10T02:34:07.568Z,7.65
2019-04-10T02:39:21.839Z,7.83
2019-04-10T02:44:16.439Z,8.48
2019-04-10T02:49:20.434Z,8.43
2019-04-10T02:54:25.088Z,7.83
2019-04-10T02:59:29.154Z,8.00
2019-04-10T03:04:33.075Z,7.58
2019-04-10T03:09:52.890Z,8.03
2019-04-10T03:14:45.177Z,9.03
2019-04-10T03:19:49.749Z,8.50
2019-04-10T03:24:52.769Z,7.75
2019-04-10T03:29:56.098Z,8.60
2019-04-10T03:35:04.753Z,8.23
2019-04-10T03:40:08.124Z,8.23
2019-04-10T03:45:13.592Z,8.43
2019-04-10T03:50:18.710Z,8.68
2019-04-10T03:55:22.938Z,8.18
2019-04-10T04:00:26.386Z,8.98
2019-04-10T04:05:30.776Z,8.65
2019-04-10T04:10:35.052Z,9.25
2019-04-10T04:15:39.098Z,10.03
2019-04-10T04:20:43.334Z,10.08
2019-04-10T04:25:46.816Z,9.90
2019-04-10T04:30:52.330Z,9.35
2019-04-10T04:35:55.196Z,9.35
2019-04-10T04:40:58.637Z,8.70
2019-04-10T04:46:03.215Z,9.43
2019-04-10T04:51:06.921Z,8.90
2019-04-10T04:56:10.216Z,9.20
2019-04-10T05:01:14.693Z,8.40
2019-04-10T05:06:18.299Z,9.38
2019-04-10T05:11:22.346Z,8.68
2019-04-10T05:16:25.748Z,8.88
2019-04-10T05:21:29.468Z,8.78
2019-04-10T05:26:32.814Z,8.08
2019-04-10T05:31:36.420Z,8.15
2019-04-10T05:36:40.017Z,8.35
2019-04-10T05:41:44.035Z,8.53
2019-04-10T05:46:47.619Z,8.25
2019-04-10T05:51:54.152Z,7.83
2019-04-10T05:56:58.998Z,8.10
2019-04-10T06:02:03.139Z,8.10
2019-04-10T06:07:06.703Z,8.50
2019-04-10T06:12:10.084Z,8.75
2019-04-10T06:17:14.168Z,7.97
2019-04-10T06:22:18.617Z,7.80
2019-04-10T06:27:22.217Z,7.70
2019-04-10T06:32:25.620Z,8.10
2019-04-10T06:37:28.982Z,8.15
2019-04-10T06:42:44.383Z,7.00
2019-04-10T06:47:38.254Z,6.62
2019-04-10T06:52:41.665Z,6.40
2019-04-10T06:57:50.861Z,6.25
2019-04-10T07:02:50.569Z,6.90
2019-04-10T07:08:01.813Z,7.17
2019-04-10T07:12:59.655Z,7.50
2019-04-10T07:18:03.191Z,7.97
2019-04-10T07:23:07.014Z,6.35
2019-04-10T07:28:11.953Z,6.78
2019-04-10T07:33:18.086Z,5.60
2019-04-10T07:38:22.731Z,6.85
2019-04-10T07:43:28.921Z,6.37
2019-04-10T07:48:31.537Z,7.03
2019-04-10T07:53:35.244Z,6.28
2019-04-10T07:58:39.843Z,6.20
2019-04-10T08:03:43.834Z,6.00
2019-04-10T08:08:47.306Z,7.83
2019-04-10T08:13:51.197Z,6.90
2019-04-10T08:18:56.833Z,5.90
2019-04-10T08:30:03.864Z,6.53
2019-04-10T08:35:07.379Z,5.97
2019-04-10T08:40:11.548Z,6.05
2019-04-10T08:45:15.035Z,5.75
2019-04-10T08:50:19.632Z,5.95
2019-04-10T08:55:24.036Z,6.25
2019-04-10T09:00:28.827Z,6.53
2019-04-10T09:05:33.291Z,7.28
2019-04-10T09:10:36.789Z,5.50
2019-04-10T09:15:42.265Z,6.08
2019-04-10T09:20:47.505Z,6.50
2019-04-10T09:25:51.253Z,6.28
2019-04-10T09:30:57.410Z,6.45
2019-04-10T09:36:00.810Z,6.65
2019-04-10T09:41:04.227Z,6.45
2019-04-10T09:46:08.446Z,6.87
2019-04-10T09:51:15.323Z,6.75
2019-04-10T09:56:19.909Z,6.62
2019-04-10T10:01:23.976Z,7.65
2019-04-10T10:06:33.056Z,6.78
2019-04-10T10:11:32.569Z,7.05
2019-04-10T10:16:36.075Z,6.67
2019-04-10T10:21:39.428Z,6.30
2019-04-10T10:26:44.556Z,6.12
2019-04-10T10:31:49.776Z,7.03
2019-04-10T10:36:53.285Z,6.25
2019-04-10T10:41:56.785Z,6.70
2019-04-10T10:47:00.272Z,6.72
2019-04-10T10:52:03.633Z,6.42
2019-04-10T10:57:07.110Z,6.75
2019-04-10T11:02:10.643Z,6.17
2019-04-10T11:07:14.494Z,6.40
2019-04-10T11:12:17.788Z,6.67
2019-04-10T11:17:22.185Z,6.85
2019-04-10T11:22:26.536Z,6.35
2019-04-10T11:27:30.055Z,6.42
2019-04-10T11:32:33.916Z,6.05
2019-04-10T11:42:42.959Z,6.30
2019-04-10T11:47:48.247Z,6.87
2019-04-10T11:52:54.121Z,5.62
2019-04-10T11:57:59.940Z,6.47
2019-04-10T12:03:04.874Z,6.05
2019-04-10T12:08:32.262Z,6.72
2019-04-10T12:13:16.445Z,7.97
2019-04-10T12:18:20.378Z,7.53
2019-04-10T12:23:25.135Z,6.35
2019-04-10T12:28:29.784Z,5.60
2019-04-10T12:33:33.734Z,6.87
2019-04-10T12:38:37.225Z,6.70
2019-04-10T12:43:41.386Z,6.20
2019-04-10T12:48:45.183Z,5.65
2019-04-10T12:53:48.756Z,5.55
2019-04-10T12:58:53.184Z,5.45
2019-04-10T13:03:57.844Z,5.83
2019-04-10T13:09:07.852Z,5.65
2019-04-10T13:14:06.928Z,5.30
2019-04-10T13:19:11.206Z,5.87
2019-04-10T13:24:15.356Z,5.35
2019-04-10T13:29:18.672Z,5.80
2019-04-10T13:34:22.884Z,5.78
2019-04-10T13:39:26.853Z,7.00
2019-04-10T13:44:30.813Z,6.50
2019-04-10T13:49:34.240Z,6.53
2019-04-10T13:54:38.807Z,6.55
2019-04-10T13:59:42.944Z,6.50
2019-04-10T14:04:47.265Z,7.35
2019-04-10T14:09:52.334Z,7.45
2019-04-10T14:14:57.368Z,7.47
2019-04-10T14:20:02.874Z,7.95
2019-04-10T14:25:07.937Z,7.33
2019-04-10T14:30:13.298Z,7.80
2019-04-10T14:35:16.853Z,7.50
2019-04-10T14:40:24.143Z,7.97
2019-04-10T14:45:27.738Z,8.43
2019-04-10T14:50:31.638Z,6.97
2019-04-10T14:55:35.528Z,8.18
2019-04-10T15:00:41.158Z,7.83
2019-04-10T15:05:50.548Z,8.53
2019-04-10T15:10:50.406Z,8.33
2019-04-10T15:15:54.767Z,8.00
2019-04-10T15:20:58.760Z,8.15
2019-04-10T15:26:03.848Z,8.08
2019-04-10T15:31:08.855Z,8.73
2019-04-10T15:36:12.660Z,8.58
2019-04-10T15:41:19.273Z,8.38
2019-04-10T15:46:23.188Z,8.80
2019-04-10T15:51:36.293Z,8.83
2019-04-10T15:56:40.181Z,8.93
2019-04-10T16:01:44.621Z,9.45
2019-04-10T16:06:47.998Z,8.63
2019-04-10T16:11:58.963Z,10.48
2019-04-10T16:17:22.317Z,9.18
2019-04-10T16:22:31.108Z,9.80
2019-04-10T16:27:34.614Z,10.13
2019-04-10T16:32:38.020Z,8.95
2019-04-10T16:37:41.878Z,9.83
2019-04-10T16:42:45.309Z,9.70
2019-04-10T16:47:48.605Z,9.35
2019-04-10T16:52:53.631Z,10.30
2019-04-10T16:57:56.972Z,10.08
2019-04-10T17:03:06.568Z,9.95
2019-04-10T17:08:12.347Z,9.23
2019-04-10T17:13:16.223Z,10.03
2019-04-10T17:18:19.781Z,10.23
2019-04-10T17:23:24.872Z,10.82
2019-04-10T17:28:28.456Z,10.18
2019-04-10T17:33:32.271Z,10.13
2019-04-10T17:38:36.509Z,11.00
2019-04-10T17:43:41.291Z,10.60
2019-04-10T17:48:44.767Z,9.95
2019-04-10T17:53:49.423Z,10.15
2019-04-10T17:58:54.244Z,9.75
2019-04-10T18:04:00.541Z,9.73
2019-04-10T18:09:03.317Z,9.30
2019-04-10T18:14:07.109Z,9.53
2019-04-10T18:19:12.508Z,9.30
2019-04-10T18:24:17.315Z,9.90
2019-04-10T18:29:21.146Z,9.00
2019-04-10T18:34:25.644Z,9.60
2019-04-10T18:39:29.042Z,10.98
2019-04-10T18:44:33.104Z,10.28
2019-04-10T18:49:36.511Z,10.82
2019-04-10T18:54:39.818Z,12.03
2019-04-10T18:59:51.128Z,12.05
2019-04-10T19:05:01.906Z,11.80
2019-04-10T19:10:06.812Z,12.23
2019-04-10T19:15:11.184Z,12.15
2019-04-10T19:20:15.656Z,11.35
2019-04-10T19:25:22.819Z,12.00
2019-04-10T19:30:37.381Z,11.03
2019-04-10T19:35:41.404Z,10.98
2019-04-10T19:40:45.840Z,10.28
2019-04-10T19:45:50.258Z,10.72
2019-04-10T19:50:53.922Z,10.98
2019-04-10T19:55:57.357Z,11.50
2019-04-10T20:01:12.741Z,12.10
2019-04-10T20:06:16.190Z,10.63
2019-04-10T20:11:31.304Z,11.45
2019-04-10T20:19:38.348Z,10.70
2019-04-10T20:24:45.586Z,10.45
2019-04-10T20:29:51.122Z,10.30
2019-04-10T20:35:00.600Z,10.38
2019-04-10T20:40:05.493Z,10.32
2019-04-10T20:45:09.345Z,9.75
2019-04-10T20:50:17.535Z,9.48
2019-04-10T20:55:25.832Z,9.08
2019-04-10T21:00:34.298Z,8.80
2019-04-10T21:05:37.937Z,9.85
2019-04-10T21:16:09.255Z,9.23
2019-04-10T21:21:16.902Z,9.10
2019-04-10T21:26:20.432Z,9.30
2019-04-10T21:31:34.601Z,10.65
2019-04-10T21:36:39.195Z,9.15
2019-04-10T21:41:42.644Z,9.55
2019-04-10T21:46:46.677Z,10.93
2019-04-10T21:51:50.110Z,10.28
2019-04-10T21:56:53.548Z,10.38
2019-04-10T22:01:57.688Z,10.68
2019-04-10T22:07:20.380Z,13.50
2019-04-10T22:12:31.133Z,11.25
2019-04-10T22:17:30.017Z,11.60
2019-04-10T22:22:33.630Z,11.65
2019-04-10T22:27:37.008Z,12.07
2019-04-10T22:32:40.918Z,12.30
2019-04-10T22:37:46.709Z,12.33
2019-04-10T22:42:51.332Z,13.43
2019-04-10T22:47:54.963Z,12.28
2019-04-10T22:52:59.225Z,12.60
2019-04-10T22:58:04.910Z,13.45
2019-04-10T23:03:08.320Z,14.43
2019-04-10T23:08:11.658Z,13.48
2019-04-10T23:13:16.005Z,14.60
2019-04-10T23:18:19.459Z,13.53
2019-04-10T23:23:25.150Z,14.15
2019-04-10T23:28:28.986Z,13.45
2019-04-10T23:33:34.470Z,15.03
2019-04-10T23:38:39.585Z,13.55
2019-04-10T23:43:42.515Z,15.13
2019-04-10T23:48:46.793Z,15.05
2019-04-10T23:53:50.941Z,15.90
2019-04-10T23:58:56.216Z,18.87
